Briefing drone pour Clermont-ferrand (LFLC)

Rechercher une autre localisation

Conditions de vol :


Nous sommes le : Dimanche 25 février 2024
Il est 23:42 UTC (00:42 LT)

Lever de soleil : 06:07 UTC (07:07 LT)
Coucher de soleil : 17:54 UTC (18:54 LT)

Météo

L'essentiel des conditions de vol

VIGILANCE MÉTÉO FRANCE - Puy-de-Dôme (63)
Pas de vigilances particulieres
CARTE TEMSI
CARTES DES FRONTS
METAR de LFLC
LFLC 242330Z AUTO 20005KT 9999 FEW041 SCT160 05/00 Q1007

Date d'émission: 24/02/2024
Heure d'émission: 23:30 UTC
Vent: 200° pour 5 KT (9 km/h)
Visibilité horizontale: > 10 km
Plafond :
- Peu de nuages à 4100ft (1250m)
- Nuages épars à 16000ft (4877m)
Température: 5 °C
Point de rosée: 0 °C
Humidité: 70%
Pression (QNH): 1007 hPa
TAF de LFLC
LFLC 221830Z 2218/2318 CNL

Conditions prévues :

Heure d'émission : Bulletin éffectué le 22 à 18:00 UTC
Prévision : Valide du 22 a 18:00 UTC au 23 a 18:00 UTC
Nuages : à 0ft (0 m)
WEBCAM POUR CLERMONT-FERRAND

Réglementation

Voler en sécurité

CARTES AERONAUTIQUE 1/500.000
CARTE AZBA (Reseau basse altitude)
CARTES VAC (LFLC)
SUP AIP




Chargement des AIP...
NOTAM (CLERMONT-FERRAND + Terrain à proximité / FIR )




Chargement des NOTAMS...
CONTACT PREFECTURE 63
Puy-de-Dôme (63) : [email protected]


Avertissement : Les données mises à disposition sont indicatives. Oxygène Drone ne pourra être tenu responsable de dégâts causés aux biens et aux personnes.